sensor_id;sensor_type;location;lat;lon;timestamp;pressure;altitude;pressure_sealevel;temperature;humidity
78613;BME280;67933;51.060;3.638;2024-01-30T00:00:22;102600.94;;;9.82;100.00
78613;BME280;67933;51.060;3.638;2024-01-30T00:02:47;102600.06;;;9.83;100.00
78613;BME280;67933;51.060;3.638;2024-01-30T00:05:12;102585.97;;;9.81;100.00
78613;BME280;67933;51.060;3.638;2024-01-30T00:07:38;102588.69;;;9.78;100.00
78613;BME280;67933;51.060;3.638;2024-01-30T00:10:04;102585.81;;;9.86;100.00
78613;BME280;67933;51.060;3.638;2024-01-30T00:12:31;102589.25;;;9.91;100.00
78613;BME280;67933;51.060;3.638;2024-01-30T00:14:57;102587.59;;;9.85;100.00
78613;BME280;67933;51.060;3.638;2024-01-30T00:17:23;102576.09;;;9.86;100.00
78613;BME280;67933;51.060;3.638;2024-01-30T00:19:50;102580.63;;;9.83;100.00
78613;BME280;67933;51.060;3.638;2024-01-30T00:22:15;102570.78;;;9.86;100.00
78613;BME280;67933;51.060;3.638;2024-01-30T00:24:41;102569.84;;;9.89;100.00
78613;BME280;67933;51.060;3.638;2024-01-30T00:27:08;102581.34;;;9.88;100.00
78613;BME280;67933;51.060;3.638;2024-01-30T00:29:33;102577.41;;;10.02;100.00
78613;BME280;67933;51.060;3.638;2024-01-30T00:31:59;102565.22;;;9.97;100.00
78613;BME280;67933;51.060;3.638;2024-01-30T00:34:25;102565.97;;;10.00;100.00
78613;BME280;67933;51.060;3.638;2024-01-30T00:36:50;102572.97;;;10.03;100.00
78613;BME280;67933;51.060;3.638;2024-01-30T00:39:16;102576.63;;;9.99;100.00
78613;BME280;67933;51.060;3.638;2024-01-30T00:41:41;102569.66;;;9.95;100.00
78613;BME280;67933;51.060;3.638;2024-01-30T00:44:07;102569.50;;;10.01;100.00
78613;BME280;67933;51.060;3.638;2024-01-30T00:46:32;102576.53;;;10.02;100.00
78613;BME280;67933;51.060;3.638;2024-01-30T00:48:58;102573.06;;;10.00;100.00
78613;BME280;67933;51.060;3.638;2024-01-30T00:51:23;102576.41;;;10.07;100.00
78613;BME280;67933;51.060;3.638;2024-01-30T00:53:49;102573.06;;;10.00;100.00
78613;BME280;67933;51.060;3.638;2024-01-30T00:56:14;102565.03;;;10.03;100.00
78613;BME280;67933;51.060;3.638;2024-01-30T00:58:43;102567.69;;;10.03;100.00
78613;BME280;67933;51.060;3.638;2024-01-30T01:01:08;102553.50;;;10.04;100.00
78613;BME280;67933;51.060;3.638;2024-01-30T01:03:34;102556.25;;;10.01;100.00
78613;BME280;67933;51.060;3.638;2024-01-30T01:05:59;102565.94;;;10.02;100.00
78613;BME280;67933;51.060;3.638;2024-01-30T01:08:25;102556.41;;;9.95;100.00
78613;BME280;67933;51.060;3.638;2024-01-30T01:10:50;102544.09;;;9.92;100.00
78613;BME280;67933;51.060;3.638;2024-01-30T01:13:16;102540.50;;;9.95;100.00
78613;BME280;67933;51.060;3.638;2024-01-30T01:15:43;102548.63;;;9.89;100.00
78613;BME280;67933;51.060;3.638;2024-01-30T01:18:08;102531.75;;;9.91;100.00
78613;BME280;67933;51.060;3.638;2024-01-30T01:20:34;102537.19;;;9.87;100.00
78613;BME280;67933;51.060;3.638;2024-01-30T01:22:59;102541.78;;;9.82;100.00
78613;BME280;67933;51.060;3.638;2024-01-30T01:25:24;102543.75;;;9.74;100.00
78613;BME280;67933;51.060;3.638;2024-01-30T01:27:50;102545.63;;;9.69;100.00
78613;BME280;67933;51.060;3.638;2024-01-30T01:30:18;102542.91;;;9.72;100.00
78613;BME280;67933;51.060;3.638;2024-01-30T01:32:51;102549.28;;;9.64;100.00
78613;BME280;67933;51.060;3.638;2024-01-30T01:35:21;102543.09;;;9.65;100.00
78613;BME280;67933;51.060;3.638;2024-01-30T01:37:48;102544.69;;;9.71;100.00
78613;BME280;67933;51.060;3.638;2024-01-30T01:40:26;102537.75;;;9.67;100.00
78613;BME280;67933;51.060;3.638;2024-01-30T01:42:53;102536.59;;;9.76;100.00
78613;BME280;67933;51.060;3.638;2024-01-30T01:45:20;102540.03;;;9.81;100.00
78613;BME280;67933;51.060;3.638;2024-01-30T01:47:47;102531.19;;;9.80;100.00
78613;BME280;67933;51.060;3.638;2024-01-30T01:50:14;102532.91;;;9.83;100.00
78613;BME280;67933;51.060;3.638;2024-01-30T01:52:44;102532.75;;;9.89;100.00
78613;BME280;67933;51.060;3.638;2024-01-30T01:55:13;102524.44;;;10.01;100.00
78613;BME280;67933;51.060;3.638;2024-01-30T01:57:38;102517.31;;;10.03;100.00
78613;BME280;67933;51.060;3.638;2024-01-30T02:00:04;102518.94;;;10.07;100.00
78613;BME280;67933;51.060;3.638;2024-01-30T02:02:30;102522.59;;;10.03;100.00
78613;BME280;67933;51.060;3.638;2024-01-30T02:04:57;102516.28;;;10.07;100.00
78613;BME280;67933;51.060;3.638;2024-01-30T02:07:24;102526.81;;;10.10;100.00
78613;BME280;67933;51.060;3.638;2024-01-30T02:09:49;102517.88;;;10.14;100.00
78613;BME280;67933;51.060;3.638;2024-01-30T02:12:15;102509.09;;;10.12;100.00
78613;BME280;67933;51.060;3.638;2024-01-30T02:14:47;102494.78;;;10.19;100.00
78613;BME280;67933;51.060;3.638;2024-01-30T02:17:14;102509.84;;;10.16;100.00
78613;BME280;67933;51.060;3.638;2024-01-30T02:19:40;102502.88;;;10.13;100.00
78613;BME280;67933;51.060;3.638;2024-01-30T02:22:06;102514.19;;;10.20;100.00
78613;BME280;67933;51.060;3.638;2024-01-30T02:24:32;102502.81;;;10.15;100.00
78613;BME280;67933;51.060;3.638;2024-01-30T02:26:57;102501.09;;;10.14;100.00
78613;BME280;67933;51.060;3.638;2024-01-30T02:29:23;102510.69;;;10.19;100.00
78613;BME280;67933;51.060;3.638;2024-01-30T02:31:48;102524.47;;;10.30;100.00
78613;BME280;67933;51.060;3.638;2024-01-30T02:34:14;102519.16;;;10.30;100.00
78613;BME280;67933;51.060;3.638;2024-01-30T02:36:43;102512.03;;;10.32;100.00
78613;BME280;67933;51.060;3.638;2024-01-30T02:39:09;102503.25;;;10.30;100.00
78613;BME280;67933;51.060;3.638;2024-01-30T02:41:35;102515.78;;;10.25;100.00
78613;BME280;67933;51.060;3.638;2024-01-30T02:44:01;102518.41;;;10.27;100.00
78613;BME280;67933;51.060;3.638;2024-01-30T02:46:27;102526.47;;;10.22;100.00
78613;BME280;67933;51.060;3.638;2024-01-30T02:48:52;102525.41;;;10.29;100.00
78613;BME280;67933;51.060;3.638;2024-01-30T02:51:17;102533.38;;;10.29;100.00
78613;BME280;67933;51.060;3.638;2024-01-30T02:53:43;102526.22;;;10.31;100.00
78613;BME280;67933;51.060;3.638;2024-01-30T02:56:08;102525.53;;;10.25;100.00
78613;BME280;67933;51.060;3.638;2024-01-30T02:58:36;102529.97;;;10.24;100.00
78613;BME280;67933;51.060;3.638;2024-01-30T03:01:02;102523.78;;;10.24;100.00
78613;BME280;67933;51.060;3.638;2024-01-30T03:03:27;102518.53;;;10.22;100.00
78613;BME280;67933;51.060;3.638;2024-01-30T03:05:52;102524.78;;;10.21;100.00
78613;BME280;67933;51.060;3.638;2024-01-30T03:08:18;102515.13;;;10.19;100.00
78613;BME280;67933;51.060;3.638;2024-01-30T03:10:43;102528.97;;;10.28;100.00
78613;BME280;67933;51.060;3.638;2024-01-30T03:13:08;102512.31;;;10.23;100.00
78613;BME280;67933;51.060;3.638;2024-01-30T03:15:34;102509.66;;;10.23;100.00
78613;BME280;67933;51.060;3.638;2024-01-30T03:18:02;102517.53;;;10.26;100.00
78613;BME280;67933;51.060;3.638;2024-01-30T03:20:29;102519.34;;;10.24;100.00
78613;BME280;67933;51.060;3.638;2024-01-30T03:22:55;102501.63;;;10.26;100.00
78613;BME280;67933;51.060;3.638;2024-01-30T03:25:21;102507.00;;;10.23;100.00
78613;BME280;67933;51.060;3.638;2024-01-30T03:27:46;102508.94;;;10.17;100.00
78613;BME280;67933;51.060;3.638;2024-01-30T03:30:12;102513.56;;;10.10;100.00
78613;BME280;67933;51.060;3.638;2024-01-30T03:32:37;102503.22;;;10.01;100.00
78613;BME280;67933;51.060;3.638;2024-01-30T03:35:03;102514.91;;;9.94;100.00
78613;BME280;67933;51.060;3.638;2024-01-30T03:37:29;102523.94;;;9.87;100.00
78613;BME280;67933;51.060;3.638;2024-01-30T03:39:55;102507.88;;;9.93;100.00
78613;BME280;67933;51.060;3.638;2024-01-30T03:42:21;102508.88;;;9.89;100.00
78613;BME280;67933;51.060;3.638;2024-01-30T03:44:47;102519.75;;;9.78;100.00
78613;BME280;67933;51.060;3.638;2024-01-30T03:47:13;102507.47;;;9.76;100.00
78613;BME280;67933;51.060;3.638;2024-01-30T03:49:38;102505.81;;;9.72;100.00
78613;BME280;67933;51.060;3.638;2024-01-30T03:52:04;102510.47;;;9.63;100.00
78613;BME280;67933;51.060;3.638;2024-01-30T03:54:29;102504.41;;;9.58;100.00
78613;BME280;67933;51.060;3.638;2024-01-30T03:56:54;102498.97;;;9.63;100.00
78613;BME280;67933;51.060;3.638;2024-01-30T03:59:20;102508.53;;;9.69;100.00
78613;BME280;67933;51.060;3.638;2024-01-30T04:01:50;102493.47;;;9.71;100.00
78613;BME280;67933;51.060;3.638;2024-01-30T04:04:16;102490.94;;;9.68;100.00
78613;BME280;67933;51.060;3.638;2024-01-30T04:06:41;102495.47;;;9.62;100.00
78613;BME280;67933;51.060;3.638;2024-01-30T04:09:06;102487.75;;;9.53;100.00
78613;BME280;67933;51.060;3.638;2024-01-30T04:11:32;102492.34;;;9.47;100.00
78613;BME280;67933;51.060;3.638;2024-01-30T04:13:58;102491.50;;;9.46;100.00
78613;BME280;67933;51.060;3.638;2024-01-30T04:16:23;102500.19;;;9.51;100.00
78613;BME280;67933;51.060;3.638;2024-01-30T04:18:49;102489.50;;;9.54;100.00
78613;BME280;67933;51.060;3.638;2024-01-30T04:21:14;102491.31;;;9.52;100.00
78613;BME280;67933;51.060;3.638;2024-01-30T04:23:41;102479.00;;;9.51;100.00
78613;BME280;67933;51.060;3.638;2024-01-30T04:26:06;102483.44;;;9.51;100.00
78613;BME280;67933;51.060;3.638;2024-01-30T04:28:32;102476.25;;;9.54;100.00
78613;BME280;67933;51.060;3.638;2024-01-30T04:30:57;102480.72;;;9.52;100.00
78613;BME280;67933;51.060;3.638;2024-01-30T04:33:23;102485.94;;;9.55;100.00
78613;BME280;67933;51.060;3.638;2024-01-30T04:35:48;102471.81;;;9.55;100.00
78613;BME280;67933;51.060;3.638;2024-01-30T04:38:13;102483.25;;;9.57;100.00
78613;BME280;67933;51.060;3.638;2024-01-30T04:40:40;102479.72;;;9.58;100.00
78613;BME280;67933;51.060;3.638;2024-01-30T04:43:05;102484.13;;;9.57;100.00
78613;BME280;67933;51.060;3.638;2024-01-30T04:45:30;102475.34;;;9.55;100.00
78613;BME280;67933;51.060;3.638;2024-01-30T04:47:56;102486.81;;;9.56;100.00
78613;BME280;67933;51.060;3.638;2024-01-30T04:50:21;102489.59;;;9.51;100.00
78613;BME280;67933;51.060;3.638;2024-01-30T04:52:47;102487.75;;;9.53;100.00
78613;BME280;67933;51.060;3.638;2024-01-30T04:55:12;102494.81;;;9.54;100.00
78613;BME280;67933;51.060;3.638;2024-01-30T04:57:37;102484.13;;;9.57;100.00
78613;BME280;67933;51.060;3.638;2024-01-30T05:00:03;102490.19;;;9.61;100.00
78613;BME280;67933;51.060;3.638;2024-01-30T05:02:30;102492.81;;;9.62;100.00
78613;BME280;67933;51.060;3.638;2024-01-30T05:04:56;102493.84;;;9.57;100.00
78613;BME280;67933;51.060;3.638;2024-01-30T05:07:21;102503.59;;;9.56;100.00
78613;BME280;67933;51.060;3.638;2024-01-30T05:09:48;102506.19;;;9.58;100.00
78613;BME280;67933;51.060;3.638;2024-01-30T05:12:13;102488.50;;;9.60;100.00
78613;BME280;67933;51.060;3.638;2024-01-30T05:14:39;102492.03;;;9.59;100.00
78613;BME280;67933;51.060;3.638;2024-01-30T05:17:04;102492.91;;;9.59;100.00
78613;BME280;67933;51.060;3.638;2024-01-30T05:19:29;102488.56;;;9.57;100.00
78613;BME280;67933;51.060;3.638;2024-01-30T05:21:55;102495.63;;;9.56;100.00
78613;BME280;67933;51.060;3.638;2024-01-30T05:24:20;102505.34;;;9.57;100.00
78613;BME280;67933;51.060;3.638;2024-01-30T05:26:46;102507.13;;;9.55;100.00
78613;BME280;67933;51.060;3.638;2024-01-30T05:29:12;102510.88;;;9.48;100.00
78613;BME280;67933;51.060;3.638;2024-01-30T05:31:37;102507.47;;;9.43;100.00
78613;BME280;67933;51.060;3.638;2024-01-30T05:34:03;102518.78;;;9.50;100.00
78613;BME280;67933;51.060;3.638;2024-01-30T05:36:28;102519.31;;;9.62;100.00
78613;BME280;67933;51.060;3.638;2024-01-30T05:38:54;102522.81;;;9.64;100.00
78613;BME280;67933;51.060;3.638;2024-01-30T05:41:19;102524.53;;;9.65;100.00
78613;BME280;67933;51.060;3.638;2024-01-30T05:43:46;102524.31;;;9.75;100.00
78613;BME280;67933;51.060;3.638;2024-01-30T05:46:11;102527.72;;;9.78;100.00
78613;BME280;67933;51.060;3.638;2024-01-30T05:48:37;102527.75;;;9.77;100.00
78613;BME280;67933;51.060;3.638;2024-01-30T05:51:02;102523.28;;;9.79;100.00
78613;BME280;67933;51.060;3.638;2024-01-30T05:53:29;102533.94;;;9.77;100.00
78613;BME280;67933;51.060;3.638;2024-01-30T05:55:54;102538.09;;;9.86;100.00
78613;BME280;67933;51.060;3.638;2024-01-30T05:58:20;102538.03;;;9.89;100.00
78613;BME280;67933;51.060;3.638;2024-01-30T06:00:46;102531.91;;;9.87;100.00
78613;BME280;67933;51.060;3.638;2024-01-30T06:03:11;102534.38;;;9.93;100.00
78613;BME280;67933;51.060;3.638;2024-01-30T06:05:37;102529.88;;;9.96;100.00
78613;BME280;67933;51.060;3.638;2024-01-30T06:08:02;102543.88;;;10.00;100.00
78613;BME280;67933;51.060;3.638;2024-01-30T06:10:28;102548.28;;;10.01;100.00
78613;BME280;67933;51.060;3.638;2024-01-30T06:12:53;102544.75;;;10.00;100.00
78613;BME280;67933;51.060;3.638;2024-01-30T06:15:18;102557.81;;;10.08;100.00
78613;BME280;67933;51.060;3.638;2024-01-30T06:17:44;102551.59;;;10.09;100.00
78613;BME280;67933;51.060;3.638;2024-01-30T06:20:09;102554.25;;;10.09;100.00
78613;BME280;67933;51.060;3.638;2024-01-30T06:22:35;102549.97;;;10.05;100.00
78613;BME280;67933;51.060;3.638;2024-01-30T06:25:01;102559.56;;;10.09;100.00
78613;BME280;67933;51.060;3.638;2024-01-30T06:27:26;102546.09;;;10.15;100.00
78613;BME280;67933;51.060;3.638;2024-01-30T06:29:52;102552.28;;;10.17;100.00
78613;BME280;67933;51.060;3.638;2024-01-30T06:32:17;102549.63;;;10.17;100.00
78613;BME280;67933;51.060;3.638;2024-01-30T06:34:42;102558.38;;;10.21;100.00
78613;BME280;67933;51.060;3.638;2024-01-30T06:37:09;102547.84;;;10.16;100.00
78613;BME280;67933;51.060;3.638;2024-01-30T06:39:35;102569.94;;;10.17;100.00
78613;BME280;67933;51.060;3.638;2024-01-30T06:42:00;102560.22;;;10.17;100.00
78613;BME280;67933;51.060;3.638;2024-01-30T06:44:25;102560.22;;;10.17;100.00
78613;BME280;67933;51.060;3.638;2024-01-30T06:46:51;102551.53;;;10.12;100.00
78613;BME280;67933;51.060;3.638;2024-01-30T06:49:16;102552.34;;;10.14;100.00
78613;BME280;67933;51.060;3.638;2024-01-30T06:51:42;102561.84;;;10.23;100.00
78613;BME280;67933;51.060;3.638;2024-01-30T06:54:07;102566.25;;;10.22;100.00
78613;BME280;67933;51.060;3.638;2024-01-30T06:56:32;102564.59;;;10.20;100.00
78613;BME280;67933;51.060;3.638;2024-01-30T06:58:58;102576.88;;;10.22;100.00
78613;BME280;67933;51.060;3.638;2024-01-30T07:01:30;102572.41;;;10.24;100.00
78613;BME280;67933;51.060;3.638;2024-01-30T07:03:57;102575.81;;;10.29;100.00
78613;BME280;67933;51.060;3.638;2024-01-30T07:06:22;102582.09;;;10.25;100.00
78613;BME280;67933;51.060;3.638;2024-01-30T07:08:49;102578.53;;;10.26;100.00
78613;BME280;67933;51.060;3.638;2024-01-30T07:11:19;102589.88;;;10.31;100.00
78613;BME280;67933;51.060;3.638;2024-01-30T07:13:45;102588.94;;;10.34;100.00
78613;BME280;67933;51.060;3.638;2024-01-30T07:16:10;102589.88;;;10.31;100.00
78613;BME280;67933;51.060;3.638;2024-01-30T07:18:35;102599.72;;;10.28;100.00
78613;BME280;67933;51.060;3.638;2024-01-30T07:21:01;102598.09;;;10.22;100.00
78613;BME280;67933;51.060;3.638;2024-01-30T07:23:26;102600.50;;;10.31;100.00
78613;BME280;67933;51.060;3.638;2024-01-30T07:25:52;102591.81;;;10.26;100.00
78613;BME280;67933;51.060;3.638;2024-01-30T07:28:17;102598.06;;;10.24;100.00
78613;BME280;67933;51.060;3.638;2024-01-30T07:30:43;102592.72;;;10.25;100.00
78613;BME280;67933;51.060;3.638;2024-01-30T07:33:08;102597.16;;;10.25;100.00
78613;BME280;67933;51.060;3.638;2024-01-30T07:35:34;102599.69;;;10.29;100.00
78613;BME280;67933;51.060;3.638;2024-01-30T07:38:00;102605.81;;;10.31;100.00
78613;BME280;67933;51.060;3.638;2024-01-30T07:40:25;102603.06;;;10.34;100.00
78613;BME280;67933;51.060;3.638;2024-01-30T07:42:50;102606.66;;;10.32;100.00
78613;BME280;67933;51.060;3.638;2024-01-30T07:45:16;102613.66;;;10.36;100.00
78613;BME280;67933;51.060;3.638;2024-01-30T07:47:42;102612.88;;;10.31;100.00
78613;BME280;67933;51.060;3.638;2024-01-30T07:50:08;102625.13;;;10.36;100.00
78613;BME280;67933;51.060;3.638;2024-01-30T07:52:33;102623.28;;;10.38;100.00
78613;BME280;67933;51.060;3.638;2024-01-30T07:54:59;102626.00;;;10.37;100.00
78613;BME280;67933;51.060;3.638;2024-01-30T07:57:24;102632.81;;;10.46;100.00
78613;BME280;67933;51.060;3.638;2024-01-30T07:59:50;102638.19;;;10.44;100.00
78613;BME280;67933;51.060;3.638;2024-01-30T08:02:15;102629.19;;;10.48;100.00
78613;BME280;67933;51.060;3.638;2024-01-30T08:04:41;102630.97;;;10.48;100.00
78613;BME280;67933;51.060;3.638;2024-01-30T08:07:06;102632.91;;;10.43;100.00
78613;BME280;67933;51.060;3.638;2024-01-30T08:09:32;102631.09;;;10.45;100.00
78613;BME280;67933;51.060;3.638;2024-01-30T08:11:58;102635.38;;;10.49;100.00
78613;BME280;67933;51.060;3.638;2024-01-30T08:14:23;102646.00;;;10.49;100.00
78613;BME280;67933;51.060;3.638;2024-01-30T08:16:49;102646.94;;;10.46;100.00
78613;BME280;67933;51.060;3.638;2024-01-30T08:19:15;102652.44;;;10.40;100.00
78613;BME280;67933;51.060;3.638;2024-01-30T08:21:40;102667.56;;;10.36;100.00
78613;BME280;67933;51.060;3.638;2024-01-30T08:24:06;102672.97;;;10.33;100.00
78613;BME280;67933;51.060;3.638;2024-01-30T08:26:32;102671.91;;;10.39;100.00
78613;BME280;67933;51.060;3.638;2024-01-30T08:28:58;102670.22;;;10.36;100.00
78613;BME280;67933;51.060;3.638;2024-01-30T08:31:23;102671.97;;;10.37;100.00
78613;BME280;67933;51.060;3.638;2024-01-30T08:33:49;102677.34;;;10.34;100.00
78613;BME280;67933;51.060;3.638;2024-01-30T08:36:16;102676.44;;;10.35;100.00
78613;BME280;67933;51.060;3.638;2024-01-30T08:38:41;102670.31;;;10.33;100.00
78613;BME280;67933;51.060;3.638;2024-01-30T08:41:07;102680.22;;;10.27;100.00
78613;BME280;67933;51.060;3.638;2024-01-30T08:43:33;102678.31;;;10.30;100.00
78613;BME280;67933;51.060;3.638;2024-01-30T08:45:59;102675.56;;;10.35;100.00
78613;BME280;67933;51.060;3.638;2024-01-30T08:48:25;102672.88;;;10.36;100.00
78613;BME280;67933;51.060;3.638;2024-01-30T08:50:50;102674.69;;;10.34;100.00
78613;BME280;67933;51.060;3.638;2024-01-30T08:53:16;102686.16;;;10.36;100.00
78613;BME280;67933;51.060;3.638;2024-01-30T08:55:41;102692.41;;;10.34;100.00
78613;BME280;67933;51.060;3.638;2024-01-30T08:58:07;102688.88;;;10.33;100.00
78613;BME280;67933;51.060;3.638;2024-01-30T09:00:33;102686.28;;;10.30;100.00
78613;BME280;67933;51.060;3.638;2024-01-30T09:02:58;102692.31;;;10.37;100.00
78613;BME280;67933;51.060;3.638;2024-01-30T09:05:23;102699.31;;;10.39;100.00
78613;BME280;67933;51.060;3.638;2024-01-30T09:07:49;102707.28;;;10.39;100.00
78613;BME280;67933;51.060;3.638;2024-01-30T09:10:14;102716.13;;;10.38;100.00
78613;BME280;67933;51.060;3.638;2024-01-30T09:12:40;102710.78;;;10.40;100.00
78613;BME280;67933;51.060;3.638;2024-01-30T09:15:05;102712.69;;;10.36;100.00
78613;BME280;67933;51.060;3.638;2024-01-30T09:17:31;102719.19;;;10.23;100.00
78613;BME280;67933;51.060;3.638;2024-01-30T09:19:56;102714.88;;;10.21;100.00
78613;BME280;67933;51.060;3.638;2024-01-30T09:22:21;102715.75;;;10.21;100.00
78613;BME280;67933;51.060;3.638;2024-01-30T09:24:47;102715.47;;;10.30;100.00
78613;BME280;67933;51.060;3.638;2024-01-30T09:27:12;102728.63;;;10.35;100.00
78613;BME280;67933;51.060;3.638;2024-01-30T09:29:38;102725.72;;;10.44;100.00
78613;BME280;67933;51.060;3.638;2024-01-30T09:32:04;102742.56;;;10.43;100.00
78613;BME280;67933;51.060;3.638;2024-01-30T09:34:31;102731.84;;;10.46;100.00
78613;BME280;67933;51.060;3.638;2024-01-30T09:36:57;102729.38;;;10.72;100.00
78613;BME280;67933;51.060;3.638;2024-01-30T09:39:22;102733.88;;;10.69;100.00
78613;BME280;67933;51.060;3.638;2024-01-30T09:42:05;102750.97;;;10.59;100.00
78613;BME280;67933;51.060;3.638;2024-01-30T09:44:31;102754.97;;;10.43;100.00
78613;BME280;67933;51.060;3.638;2024-01-30T09:46:57;102765.13;;;10.25;100.00
78613;BME280;67933;51.060;3.638;2024-01-30T09:49:31;102773.41;;;10.12;100.00
78613;BME280;67933;51.060;3.638;2024-01-30T09:51:57;102771.84;;;10.03;100.00
78613;BME280;67933;51.060;3.638;2024-01-30T09:54:23;102778.38;;;9.90;100.00
78613;BME280;67933;51.060;3.638;2024-01-30T09:56:48;102771.31;;;9.89;100.00
78613;BME280;67933;51.060;3.638;2024-01-30T09:59:14;102781.97;;;9.86;100.00
78613;BME280;67933;51.060;3.638;2024-01-30T10:01:40;102784.66;;;9.84;100.00
78613;BME280;67933;51.060;3.638;2024-01-30T10:04:07;102793.19;;;9.98;100.00
78613;BME280;67933;51.060;3.638;2024-01-30T10:06:32;102803.81;;;9.97;100.00
78613;BME280;67933;51.060;3.638;2024-01-30T10:08:57;102805.44;;;10.02;100.00
78613;BME280;67933;51.060;3.638;2024-01-30T10:11:23;102805.22;;;10.12;100.00
78613;BME280;67933;51.060;3.638;2024-01-30T10:13:49;102806.31;;;10.03;100.00
78613;BME280;67933;51.060;3.638;2024-01-30T10:16:14;102816.34;;;9.90;100.00
78613;BME280;67933;51.060;3.638;2024-01-30T10:18:42;102822.72;;;9.82;100.00
78613;BME280;67933;51.060;3.638;2024-01-30T10:21:08;102814.97;;;9.73;100.00
78613;BME280;67933;51.060;3.638;2024-01-30T10:23:34;102826.50;;;9.72;100.00
78613;BME280;67933;51.060;3.638;2024-01-30T10:25:59;102829.91;;;9.77;100.00
78613;BME280;67933;51.060;3.638;2024-01-30T10:28:27;102818.47;;;9.75;100.00
78613;BME280;67933;51.060;3.638;2024-01-30T10:31:01;102828.84;;;9.84;100.00
78613;BME280;67933;51.060;3.638;2024-01-30T10:33:27;102832.38;;;9.84;100.00
78613;BME280;67933;51.060;3.638;2024-01-30T10:35:56;102827.16;;;9.81;100.00
78613;BME280;67933;51.060;3.638;2024-01-30T10:38:30;102821.91;;;9.78;100.00
78613;BME280;67933;51.060;3.638;2024-01-30T10:41:02;102825.47;;;9.77;100.00
78613;BME280;67933;51.060;3.638;2024-01-30T10:43:32;102829.78;;;9.83;100.00
78613;BME280;67933;51.060;3.638;2024-01-30T10:46:10;102824.81;;;10.06;100.00
78613;BME280;67933;51.060;3.638;2024-01-30T10:48:42;102819.88;;;10.29;100.00
78613;BME280;67933;51.060;3.638;2024-01-30T10:51:09;102801.63;;;10.84;100.00
78613;BME280;67933;51.060;3.638;2024-01-30T10:53:35;102809.81;;;10.76;100.00
78613;BME280;67933;51.060;3.638;2024-01-30T10:56:03;102810.03;;;10.67;100.00
78613;BME280;67933;51.060;3.638;2024-01-30T10:58:29;102817.09;;;10.68;100.00
78613;BME280;67933;51.060;3.638;2024-01-30T11:00:55;102822.84;;;10.51;100.00
78613;BME280;67933;51.060;3.638;2024-01-30T11:03:21;102818.69;;;10.39;100.00
78613;BME280;67933;51.060;3.638;2024-01-30T11:05:50;102815.28;;;10.36;100.00
78613;BME280;67933;51.060;3.638;2024-01-30T11:08:22;102817.22;;;10.29;100.00
78613;BME280;67933;51.060;3.638;2024-01-30T11:10:49;102813.63;;;10.30;100.00
78613;BME280;67933;51.060;3.638;2024-01-30T11:13:15;102824.97;;;10.37;100.00
78613;BME280;67933;51.060;3.638;2024-01-30T11:15:40;102819.59;;;10.38;100.00
78613;BME280;67933;51.060;3.638;2024-01-30T11:18:06;102824.03;;;10.38;100.00
78613;BME280;67933;51.060;3.638;2024-01-30T11:20:32;102821.50;;;10.33;100.00
78613;BME280;67933;51.060;3.638;2024-01-30T11:22:59;102826.97;;;10.27;100.00
78613;BME280;67933;51.060;3.638;2024-01-30T11:25:25;102821.91;;;10.15;100.00
78613;BME280;67933;51.060;3.638;2024-01-30T11:27:55;102825.34;;;10.22;100.00
78613;BME280;67933;51.060;3.638;2024-01-30T11:30:27;102822.75;;;10.20;100.00
78613;BME280;67933;51.060;3.638;2024-01-30T11:33:05;102826.34;;;10.15;100.00
78613;BME280;67933;51.060;3.638;2024-01-30T11:35:38;102827.19;;;10.18;100.00
78613;BME280;67933;51.060;3.638;2024-01-30T11:38:08;102827.47;;;10.06;100.00
78613;BME280;67933;51.060;3.638;2024-01-30T11:40:35;102827.56;;;10.01;100.00
78613;BME280;67933;51.060;3.638;2024-01-30T11:43:02;102838.19;;;10.00;100.00
78613;BME280;67933;51.060;3.638;2024-01-30T11:45:28;102835.59;;;9.98;100.00
78613;BME280;67933;51.060;3.638;2024-01-30T11:47:54;102821.56;;;9.93;100.00
78613;BME280;67933;51.060;3.638;2024-01-30T11:50:20;102815.50;;;9.88;100.00
78613;BME280;67933;51.060;3.638;2024-01-30T11:52:45;102830.59;;;9.85;100.00
78613;BME280;67933;51.060;3.638;2024-01-30T11:55:11;102841.47;;;9.74;100.00
78613;BME280;67933;51.060;3.638;2024-01-30T11:57:37;102826.34;;;9.78;100.00
78613;BME280;67933;51.060;3.638;2024-01-30T12:00:04;102843.06;;;9.81;100.00
78613;BME280;67933;51.060;3.638;2024-01-30T12:02:35;102846.78;;;9.73;100.00
78613;BME280;67933;51.060;3.638;2024-01-30T12:05:07;102844.38;;;9.60;100.00
78613;BME280;67933;51.060;3.638;2024-01-30T12:07:33;102852.56;;;9.51;100.00
78613;BME280;67933;51.060;3.638;2024-01-30T12:09:59;102849.97;;;9.48;100.00
78613;BME280;67933;51.060;3.638;2024-01-30T12:12:28;102864.25;;;9.41;100.00
78613;BME280;67933;51.060;3.638;2024-01-30T12:14:55;102867.78;;;9.40;100.00
78613;BME280;67933;51.060;3.638;2024-01-30T12:17:31;102871.44;;;9.35;100.00
78613;BME280;67933;51.060;3.638;2024-01-30T12:20:04;102875.00;;;9.32;100.00
78613;BME280;67933;51.060;3.638;2024-01-30T12:22:30;102867.22;;;9.24;100.00
78613;BME280;67933;51.060;3.638;2024-01-30T12:24:55;102876.94;;;9.24;100.00
78613;BME280;67933;51.060;3.638;2024-01-30T12:27:21;102878.81;;;9.19;100.00
78613;BME280;67933;51.060;3.638;2024-01-30T12:29:46;102889.38;;;9.20;100.00
78613;BME280;67933;51.060;3.638;2024-01-30T12:32:15;102889.31;;;9.22;100.00
78613;BME280;67933;51.060;3.638;2024-01-30T12:34:41;102887.69;;;9.15;100.00
78613;BME280;67933;51.060;3.638;2024-01-30T12:37:07;102889.56;;;9.10;100.00
78613;BME280;67933;51.060;3.638;2024-01-30T12:39:35;102897.53;;;9.08;100.00